Latest Weather Observations for High Range (Wanganderry)

IDN60801

Issued at 10:12 am EST Monday 16 September 2019 (issued every 10 minutes, with the page automatically refreshed every 10 minutes)

About weather observations | Map of weather stations | Latest weather observations for NSW | Other Formats
Station Details ID: 068262 Name: HIGH RANGE AWS (WANGANDERRY) Lat: -34.33 Lon: 150.27 Height: 813.6 m
Data from the previous 72 hours. | See also: Recent months for locations in New South Wales
Date/Time
EST
Temp
°C
App
Temp
°C
Dew
Point
°C
Rel
Hum
%
Delta-T
°C
Wind Press
QNH
hPa
Press
MSL
hPa
Rain since
9am
mm
Dir  Spd
km/h
Gust
km/h
Spd
kts
Gust
kts
16/10:00am 19.9 12.0 -8.4 14 11.0 WNW 26 35 14 19 1016.9 1016.1 0.0
16/09:30am 20.1 12.4 -11.2 11 11.6 WNW 24 35 13 19 1016.9 1016.1 0.0
16/09:00am 19.4 13.4 -10.7 12 11.1 WNW 15 20 8 11 1017.1 1016.2 0.0
16/08:30am 18.3 12.2 -12.6 11 10.9 WNW 15 19 8 10 1017.2 1016.3 0.0
16/08:00am 18.0 12.3 -11.8 12 10.6 NW 13 22 7 12 1017.2 1016.3 0.0
16/07:30am 17.5 11.8 -12.2 12 10.4 NW 13 20 7 11 1017.1 1016.2 0.0
16/07:00am 17.1 10.6 -12.5 12 10.3 NW 17 24 9 13 1017.1 1016.2 0.0
16/06:30am 16.8 9.7 -13.8 11 10.3 NNW 20 35 11 19 1016.8 1016.0 0.0
16/06:00am 16.4 10.6 -14.1 11 10.2 NW 13 19 7 10 1017.2 1016.3 0.0
16/05:30am 15.5 10.1 -13.7 12 9.7 W 11 19 6 10 1017.4 1016.6 0.0
16/05:00am 15.4 9.3 -12.8 13 9.5 WNW 15 20 8 11 1017.4 1016.6 0.0
16/04:30am 15.6 9.5 -13.7 12 9.7 WNW 15 19 8 10 1017.3 1016.4 0.0
16/04:00am 16.1 10.0 -13.3 12 9.9 W 15 20 8 11 1017.5 1016.7 0.0
16/03:30am 16.7 9.8 -13.9 11 10.3 WNW 19 26 10 14 1017.7 1016.9 0.0
16/03:00am 16.6 10.5 -12.9 12 10.1 WNW 15 20 8 11 1017.8 1017.0 0.0
16/02:30am 16.8 10.3 -12.7 12 10.2 WNW 17 24 9 13 1018.1 1017.3 0.0
16/02:00am 16.5 10.5 -11.0 14 9.8 W 15 22 8 12 1018.7 1017.9 0.0
16/01:30am 16.7 11.5 -10.9 14 9.9 WNW 11 15 6 8 1019.2 1018.4 0.0
16/01:00am 17.8 11.7 -13.0 11 10.7 WNW 15 24 8 13 1019.5 1018.8 0.0
16/12:30am 17.5 11.4 -12.2 12 10.4 NW 15 19 8 10 1019.8 1019.0 0.0
16/12:00am 17.8 11.0 -11.9 12 10.5 NW 19 28 10 15 1019.8 1019.0 0.0
 
Date/Time
EST
Temp
°C
App
Temp
°C
Dew
Point
°C
Rel
Hum
%
Delta-T
°C
Wind Press
QNH
hPa
Press
MSL
hPa
Rain since
9am
mm
Dir  Spd
km/h
Gust
km/h
Spd
kts
Gust
kts
15/11:30pm 17.6 11.6 -11.1 13 10.3 WNW 15 20 8 11 1020.2 1019.4 0.0
15/11:00pm 17.4 11.5 -10.3 14 10.1 WNW 15 19 8 10 1020.3 1019.5 0.0
15/10:30pm 17.3 11.5 -8.7 16 9.8 NW 15 20 8 11 1020.6 1019.9 0.0
15/10:00pm 17.1 11.9 -6.7 19 9.3 NW 13 20 7 11 1020.8 1020.1 0.0
15/09:30pm 17.3 11.7 -6.5 19 9.4 NW 15 20 8 11 1021.1 1020.3 0.0
15/09:00pm 17.6 11.9 -7.0 18 9.6 NW 15 20 8 11 1021.3 1020.5 0.0
15/08:30pm 17.7 12.9 -6.2 19 9.5 NW 11 13 6 7 1021.4 1020.6 0.0
15/08:00pm 17.9 13.2 -5.3 20 9.4 NW 11 13 6 7 1021.5 1020.7 0.0
15/07:30pm 18.1 12.9 -5.9 19 9.7 WNW 13 17 7 9 1021.5 1020.7 0.0
15/07:00pm 17.3 11.4 -5.2 21 9.1 WNW 17 20 9 11 1021.3 1020.5 0.0
15/06:30pm 17.6 12.6 -4.3 22 9.1 W 13 17 7 9 1021.2 1020.4 0.0
15/06:00pm 17.1 12.0 -4.8 22 8.9 WSW 13 19 7 10 1021.0 1020.2 0.0
15/05:30pm 18.9 13.9 -3.9 21 9.6 W 13 19 7 10 1020.6 1019.9 0.0
15/05:00pm 20.1 13.9 -3.5 20 10.1 WSW 20 28 11 15 1020.6 1019.9 0.0
15/04:30pm 21.1 15.5 -2.7 20 10.5 WSW 17 20 9 11 1020.5 1019.7 0.0
15/04:00pm 21.3 14.3 -3.2 19 10.7 W 24 33 13 18 1020.5 1019.7 0.0
15/03:30pm 20.4 12.5 -4.7 18 10.6 W 28 39 15 21 1020.5 1019.7 0.0
15/03:00pm 20.9 13.7 -5.0 17 10.9 WSW 24 33 13 18 1020.7 1020.0 0.0
15/02:30pm 20.8 13.3 -4.4 18 10.7 W 26 37 14 20 1021.0 1020.2 0.0
15/02:00pm 22.4 15.4 -3.8 17 11.4 WNW 24 41 13 22 1020.8 1020.1 0.0
15/01:30pm 22.2 15.5 -4.0 17 11.4 WSW 22 32 12 17 1021.3 1020.5 0.0
15/01:00pm 21.4 15.2 -4.6 17 11.1 W 19 33 10 18 1021.7 1021.0 0.0
15/12:30pm 20.8 13.8 -6.7 15 11.2 W 22 32 12 17 1022.3 1021.5 0.0
15/12:00pm 20.6 12.2 -10.9 11 11.7 W 28 39 15 21 1022.6 1021.8 0.0
15/11:30am 20.7 12.9 -7.7 14 11.3 WSW 26 37 14 20 1022.9 1022.2 0.0
15/11:00am 19.6 12.7 -10.5 12 11.2 W 20 32 11 17 1023.3 1022.6 0.0
15/10:30am 19.5 12.9 -8.7 14 10.9 WSW 19 28 10 15 1023.4 1022.7 0.0
15/10:00am 17.7 10.7 -7.6 17 9.8 WSW 22 35 12 19 1023.7 1022.9 0.0
15/09:30am 17.5 10.4 -8.6 16 9.9 WSW 22 28 12 15 1023.7 1022.9 0.0
15/09:00am 16.2 9.2 -7.4 19 9.0 WSW 22 28 12 15 1023.7 1022.9 0.0
15/08:30am 14.5 7.1 -6.9 22 8.1 WSW 24 32 13 17 1023.8 1023.1 -
15/08:00am 13.7 6.4 -5.9 25 7.5 W 24 30 13 16 1023.5 1022.8 -
15/07:00am 11.6 4.1 -4.1 33 6.1 W 26 32 14 17 1023.3 1022.6 0.0
15/06:30am 10.4 2.2 -4.0 36 5.6 W 30 35 16 19 1022.8 1022.1 0.0
15/06:00am 10.1 1.4 -3.6 38 5.3 W 33 39 18 21 1022.5 1021.7 0.0
15/05:30am 9.7 2.4 -2.9 41 5.0 W 26 32 14 17 1022.5 1021.7 0.0
15/05:00am 9.2 2.0 -2.4 44 4.6 WNW 26 30 14 16 1022.1 1021.4 0.0
15/04:30am 9.0 1.0 -2.0 46 4.4 W 30 32 16 17 1022.0 1021.3 0.0
15/04:00am 8.8 1.7 -1.6 48 4.2 WNW 26 32 14 17 1021.9 1021.2 0.0
15/03:30am 9.4 1.9 -1.6 46 4.5 W 28 33 15 18 1022.0 1021.3 0.0
15/03:00am 8.9 1.8 -1.5 48 4.2 WNW 26 28 14 15 1022.0 1021.3 0.0
15/02:30am 9.0 1.9 -1.4 48 4.2 W 26 30 14 16 1022.3 1021.5 0.0
15/02:00am 9.3 2.2 -1.1 48 4.2 W 26 30 14 16 1022.6 1021.8 0.0
15/01:30am 9.1 2.4 -1.3 48 4.2 W 24 28 13 15 1022.9 1022.2 0.0
15/01:00am 9.2 1.7 -1.5 47 4.3 W 28 32 15 17 1023.0 1022.3 0.0
15/12:30am 9.2 2.6 -0.7 50 4.1 W 24 28 13 15 1023.3 1022.6 0.0
15/12:00am 9.0 2.1 0.2 54 3.7 W 26 30 14 16 1023.5 1022.8 0.0
 
Date/Time
EST
Temp
°C
App
Temp
°C
Dew
Point
°C
Rel
Hum
%
Delta-T
°C
Wind Press
QNH
hPa
Press
MSL
hPa
Rain since
9am
mm
Dir  Spd
km/h
Gust
km/h
Spd
kts
Gust
kts
14/11:30pm 8.8 2.7 2.6 65 2.8 W 24 28 13 15 1023.5 1022.8 0.0
14/11:00pm 8.7 3.8 4.3 74 2.0 WNW 19 22 10 12 1023.7 1022.9 0.0
14/10:30pm 8.1 4.9 6.7 91 0.7 NW 13 15 7 8 1023.8 1023.1 0.0
14/10:00pm 8.4 4.8 6.9 90 0.7 NNW 15 19 8 10 1024.0 1023.3 0.0
14/09:30pm 8.1 4.5 6.9 92 0.6 NNW 15 17 8 9 1024.1 1023.4 0.0
14/09:00pm 7.9 5.0 6.7 92 0.6 NNE 11 13 6 7 1024.3 1023.6 0.0
14/08:30pm 7.9 5.3 6.2 89 0.8 NNE 9 11 5 6 1024.3 1023.6 0.0
14/08:00pm 8.6 6.1 6.6 87 1.0 NNE 9 13 5 7 1024.1 1023.4 0.0
14/07:30pm 9.7 6.9 7.0 83 1.3 NNE 11 15 6 8 1023.8 1023.1 0.0
14/07:00pm 10.4 7.5 6.5 77 1.9 NNE 11 13 6 7 1023.5 1022.8 0.0
14/06:30pm 11.6 8.4 6.9 73 2.3 NNE 13 17 7 9 1023.2 1022.5 0.0
14/06:00pm 12.8 10.0 6.8 67 3.0 NE 11 15 6 8 1023.0 1022.3 0.0
14/05:30pm 14.2 12.1 5.8 57 4.2 NNW 6 9 3 5 1022.6 1021.8 0.0
14/05:00pm 17.2 11.0 -4.7 22 8.9 WNW 19 24 10 13 1022.4 1021.6 0.0
14/04:30pm 17.8 12.8 -4.2 22 9.2 W 13 22 7 12 1022.0 1021.3 0.0
14/04:00pm 18.6 14.4 -4.1 21 9.5 WNW 9 19 5 10 1021.7 1021.0 0.0
14/03:30pm 18.6 12.2 -5.4 19 9.8 WSW 20 28 11 15 1021.9 1021.2 0.0
14/03:00pm 19.6 13.4 -5.3 18 10.3 W 19 32 10 17 1021.8 1021.1 0.0
14/02:30pm 18.9 13.3 -6.7 17 10.2 WSW 15 24 8 13 1021.8 1021.1 0.0
14/02:00pm 18.9 13.4 -5.2 19 9.9 SW 15 26 8 14 1022.0 1021.3 0.0
14/01:30pm 18.1 12.1 -6.6 18 9.8 SW 17 28 9 15 1022.3 1021.5 0.0
14/01:00pm 18.3 12.8 -5.0 20 9.5 SW 15 26 8 14 1022.4 1021.6 0.0
14/12:30pm 17.7 11.4 -6.2 19 9.5 SW 19 30 10 16 1022.5 1021.7 0.0
14/12:00pm 17.3 12.6 -5.2 21 9.1 SW 11 22 6 12 1022.9 1022.2 0.0
14/11:30am 16.6 10.5 -3.5 25 8.4 WSW 19 24 10 13 1023.2 1022.5 0.0
14/11:00am 16.2 11.8 -2.3 28 7.9 WSW 11 20 6 11 1023.4 1022.7 0.0
14/10:30am 14.6 9.9 -1.5 33 6.9 SW 13 20 7 11 1023.7 1022.9 0.0
14/10:00am 14.6 9.1 -1.9 32 7.0 SW 17 24 9 13 1023.8 1023.1 0.0
14/09:30am 13.9 8.8 0.5 40 5.9 WSW 17 24 9 13 1023.9 1023.2 0.0
14/09:00am 12.4 6.7 0.8 45 5.1 WSW 20 26 11 14 1023.9 1023.2 0.0
14/08:30am 11.1 3.9 0.8 49 4.5 WSW 28 35 15 19 1023.4 1022.7 0.0
14/08:00am 10.0 2.4 0.6 52 4.0 WSW 30 37 16 20 1022.9 1022.2 0.0
14/07:30am 9.5 1.4 0.9 55 3.7 SW 33 41 18 22 1022.6 1021.8 0.0
14/07:00am 8.9 -0.7 0.9 57 3.4 WSW 41 50 22 27 1021.8 1021.1 0.0
14/06:30am 8.4 -1.3 0.6 58 3.3 WSW 41 54 22 29 1021.6 1020.9 0.0
14/06:00am 8.3 -1.4 0.5 58 3.3 WSW 41 48 22 26 1021.3 1020.5 0.0
14/05:30am 8.5 -1.6 0.2 56 3.5 WSW 43 54 23 29 1021.1 1020.3 0.0
14/05:00am 8.9 -0.5 0.1 54 3.7 WSW 39 52 21 28 1020.7 1020.0 0.0
14/04:30am 9.5 -0.8 0.4 53 3.9 WSW 44 59 24 32 1020.3 1019.5 0.0
14/04:06am 9.6 0.1 -0.6 49 4.2 WSW 39 57 21 31 1020.3 1019.5 0.0
14/04:00am 9.4 0.2 -1.3 47 4.4 WSW 37 46 20 25 1020.4 1019.6 0.0
14/03:30am 9.7 -1.2 -4.3 37 5.3 WSW 44 54 24 29 1020.3 1019.5 0.0
14/03:00am 10.0 -1.4 -5.1 34 5.7 WSW 46 61 25 33 1020.4 1019.6 0.0
14/02:30am 10.2 -1.5 -4.9 34 5.7 WSW 48 57 26 31 1020.4 1019.6 0.0
14/02:00am 10.1 -0.8 -4.6 35 5.6 WSW 44 57 24 31 1020.5 1019.7 0.0
14/01:30am 10.4 0.1 -4.0 36 5.6 WSW 41 50 22 27 1020.4 1019.6 0.0
14/01:00am 10.3 0.8 -3.7 37 5.4 WSW 37 52 20 28 1020.6 1019.9 0.0
14/12:30am 10.7 1.1 -4.9 33 5.9 WSW 37 46 20 25 1021.0 1020.2 0.0
14/12:00am 11.0 1.4 -5.0 32 6.1 WSW 37 48 20 26 1021.2 1020.4 0.0
 
Date/Time
EST
Temp
°C
App
Temp
°C
Dew
Point
°C
Rel
Hum
%
Delta-T
°C
Wind Press
QNH
hPa
Press
MSL
hPa
Rain since
9am
mm
Dir  Spd
km/h
Gust
km/h
Spd
kts
Gust
kts
13/11:30pm 11.6 1.9 -5.8 29 6.6 WSW 37 52 20 28 1021.4 1020.6 0.0
13/11:00pm 11.8 3.0 -4.3 32 6.3 WSW 33 44 18 24 1021.6 1020.9 0.0
13/10:30pm 12.0 3.4 -3.8 33 6.3 WSW 32 37 17 20 1021.8 1021.1 0.0
13/10:00pm 12.5 4.0 -3.3 33 6.4 WSW 32 43 17 23 1021.8 1021.1 0.0
13/09:30pm 12.9 4.4 -3.0 33 6.5 W 32 43 17 23 1021.4 1020.6 0.0
13/09:00pm 13.4 5.7 -2.9 32 6.7 WNW 28 35 15 19 1021.2 1020.4 0.0
13/08:30pm 13.3 5.5 -3.4 31 6.8 WNW 28 33 15 18 1021.6 1020.9 0.0
13/08:00pm 13.8 5.9 -4.4 28 7.2 W 28 37 15 20 1022.3 1021.5 0.0
13/07:30pm 14.0 6.2 -4.2 28 7.3 W 28 35 15 19 1022.3 1021.5 0.0
13/07:00pm 14.5 7.4 -4.7 26 7.6 W 24 30 13 16 1022.3 1021.5 0.0
13/06:30pm 14.9 7.3 -6.0 23 8.1 W 26 37 14 20 1021.9 1021.2 0.0
13/06:00pm 15.3 8.0 -6.3 22 8.4 W 24 32 13 17 1021.8 1021.1 0.0
13/05:30pm 16.1 8.0 -6.8 20 8.9 WSW 28 39 15 21 1021.9 1021.2 0.0
13/05:00pm 17.1 10.1 -6.7 19 9.3 WSW 22 32 12 17 1021.4 1020.6 0.0
13/04:30pm 18.4 11.0 -7.8 16 10.2 W 24 37 13 20 1020.8 1020.1 0.0
13/04:00pm 18.7 11.2 -8.4 15 10.4 WSW 24 41 13 22 1020.8 1020.1 0.0
13/03:30pm 19.6 12.0 -9.5 13 11.1 WSW 24 37 13 20 1020.7 1020.0 0.0
13/03:00pm 19.5 12.7 -11.7 11 11.4 W 19 33 10 18 1020.5 1019.7 0.0
13/02:30pm 19.4 14.7 -1.7 24 9.4 WNW 13 24 7 13 1020.8 1020.1 0.0
13/02:00pm 18.9 14.5 -2.1 24 9.2 WNW 11 15 6 8 1021.2 1020.4 0.0
13/01:30pm 18.5 14.3 -0.8 27 8.7 NW 11 19 6 10 1021.6 1020.9 0.0
13/01:00pm 18.4 14.4 -2.5 24 9.1 NW 9 15 5 8 1022.0 1021.3 0.0
13/12:30pm 17.6 13.0 -4.3 22 9.1 NNW 11 20 6 11 1022.5 1021.7 0.0
13/12:00pm 16.4 12.2 -1.2 30 7.7 NW 11 20 6 11 1023.0 1022.3 0.0
13/11:30am 15.1 11.1 -2.3 30 7.3 N 9 15 5 8 1023.4 1022.7 0.0
13/11:00am 14.8 11.0 -0.5 35 6.7 NW 9 17 5 9 1023.9 1023.2 0.0
13/10:30am 14.4 10.1 1.3 41 5.9 NW 13 19 7 10 1024.1 1023.4 0.0

Other formats

Comma delimited format used in spreadsheet applications
http://www.bom.gov.au/fwo/IDN60801/IDN60801.99742.axf

JavaScript Object Notation format (JSON) in row-major order
http://www.bom.gov.au/fwo/IDN60801/IDN60801.99742.json

Data quality

Most of these data are generated automatically and are frequently updated. Quality checks on data are not normally performed. It is possible for incorrect values to appear. Refer to information at About Latest Weather Observations and please check the disclaimer before using these data.